sensor_id;sensor_type;location;lat;lon;timestamp;P1;durP1;ratioP1;P2;durP2;ratioP2
84672;SDS011;74899;42.256;23.284;2024-02-26T00:01:53;2.20;;;2.10;;
84672;SDS011;74899;42.256;23.284;2024-02-26T00:04:19;4.32;;;3.97;;
84672;SDS011;74899;42.256;23.284;2024-02-26T00:06:48;7.15;;;3.47;;
84672;SDS011;74899;42.256;23.284;2024-02-26T00:09:16;2.92;;;2.72;;
84672;SDS011;74899;42.256;23.284;2024-02-26T00:11:42;2.20;;;2.03;;
84672;SDS011;74899;42.256;23.284;2024-02-26T00:14:08;2.90;;;2.55;;
84672;SDS011;74899;42.256;23.284;2024-02-26T00:16:34;8.40;;;5.43;;
84672;SDS011;74899;42.256;23.284;2024-02-26T00:19:01;7.28;;;3.60;;
84672;SDS011;74899;42.256;23.284;2024-02-26T00:21:27;3.83;;;3.03;;
84672;SDS011;74899;42.256;23.284;2024-02-26T00:23:53;9.30;;;2.75;;
84672;SDS011;74899;42.256;23.284;2024-02-26T00:26:19;15.70;;;10.13;;
84672;SDS011;74899;42.256;23.284;2024-02-26T00:28:46;4.38;;;4.03;;
84672;SDS011;74899;42.256;23.284;2024-02-26T00:31:12;6.32;;;4.93;;
84672;SDS011;74899;42.256;23.284;2024-02-26T00:33:39;9.70;;;5.88;;
84672;SDS011;74899;42.256;23.284;2024-02-26T00:36:06;5.03;;;2.78;;
84672;SDS011;74899;42.256;23.284;2024-02-26T00:38:32;3.70;;;2.50;;
84672;SDS011;74899;42.256;23.284;2024-02-26T00:40:58;6.85;;;3.22;;
84672;SDS011;74899;42.256;23.284;2024-02-26T00:43:24;2.55;;;2.35;;
84672;SDS011;74899;42.256;23.284;2024-02-26T00:45:50;2.70;;;2.45;;
84672;SDS011;74899;42.256;23.284;2024-02-26T00:48:17;2.80;;;2.30;;
84672;SDS011;74899;42.256;23.284;2024-02-26T00:50:43;2.15;;;2.05;;
84672;SDS011;74899;42.256;23.284;2024-02-26T00:53:11;2.35;;;2.25;;
84672;SDS011;74899;42.256;23.284;2024-02-26T00:55:36;2.42;;;2.22;;
84672;SDS011;74899;42.256;23.284;2024-02-26T00:58:02;4.18;;;3.40;;
84672;SDS011;74899;42.256;23.284;2024-02-26T01:00:28;3.53;;;2.72;;
84672;SDS011;74899;42.256;23.284;2024-02-26T01:02:54;2.78;;;2.67;;
84672;SDS011;74899;42.256;23.284;2024-02-26T01:05:20;6.95;;;2.67;;
84672;SDS011;74899;42.256;23.284;2024-02-26T01:07:46;3.60;;;2.88;;
84672;SDS011;74899;42.256;23.284;2024-02-26T01:10:12;2.50;;;2.30;;
84672;SDS011;74899;42.256;23.284;2024-02-26T01:12:38;2.30;;;2.20;;
84672;SDS011;74899;42.256;23.284;2024-02-26T01:15:04;2.80;;;2.60;;
84672;SDS011;74899;42.256;23.284;2024-02-26T01:17:30;5.50;;;2.97;;
84672;SDS011;74899;42.256;23.284;2024-02-26T01:19:56;3.35;;;2.72;;
84672;SDS011;74899;42.256;23.284;2024-02-26T01:22:22;2.78;;;2.58;;
84672;SDS011;74899;42.256;23.284;2024-02-26T01:24:48;2.05;;;1.90;;
84672;SDS011;74899;42.256;23.284;2024-02-26T01:27:15;3.00;;;2.58;;
84672;SDS011;74899;42.256;23.284;2024-02-26T01:29:41;3.75;;;2.95;;
84672;SDS011;74899;42.256;23.284;2024-02-26T01:32:07;4.13;;;3.80;;
84672;SDS011;74899;42.256;23.284;2024-02-26T01:34:33;3.47;;;3.17;;
84672;SDS011;74899;42.256;23.284;2024-02-26T01:37:00;5.72;;;3.88;;
84672;SDS011;74899;42.256;23.284;2024-02-26T01:39:26;7.30;;;2.92;;
84672;SDS011;74899;42.256;23.284;2024-02-26T01:41:54;3.42;;;3.17;;
84672;SDS011;74899;42.256;23.284;2024-02-26T01:44:21;2.83;;;2.60;;
84672;SDS011;74899;42.256;23.284;2024-02-26T01:46:46;2.55;;;2.17;;
84672;SDS011;74899;42.256;23.284;2024-02-26T01:49:13;2.92;;;2.55;;
84672;SDS011;74899;42.256;23.284;2024-02-26T01:51:42;4.00;;;2.03;;
84672;SDS011;74899;42.256;23.284;2024-02-26T01:54:09;2.65;;;2.20;;
84672;SDS011;74899;42.256;23.284;2024-02-26T01:56:37;2.10;;;2.00;;
84672;SDS011;74899;42.256;23.284;2024-02-26T01:59:04;2.53;;;2.33;;
84672;SDS011;74899;42.256;23.284;2024-02-26T02:01:31;2.33;;;2.13;;
84672;SDS011;74899;42.256;23.284;2024-02-26T02:03:59;2.63;;;2.42;;
84672;SDS011;74899;42.256;23.284;2024-02-26T02:06:26;5.13;;;2.33;;
84672;SDS011;74899;42.256;23.284;2024-02-26T02:08:56;2.45;;;2.35;;
84672;SDS011;74899;42.256;23.284;2024-02-26T02:11:22;2.45;;;2.33;;
84672;SDS011;74899;42.256;23.284;2024-02-26T02:13:48;2.65;;;2.53;;
84672;SDS011;74899;42.256;23.284;2024-02-26T02:16:15;3.65;;;2.15;;
84672;SDS011;74899;42.256;23.284;2024-02-26T02:18:41;3.15;;;2.50;;
84672;SDS011;74899;42.256;23.284;2024-02-26T02:32:42;3.50;;;2.33;;
84672;SDS011;74899;42.256;23.284;2024-02-26T02:35:08;2.78;;;2.58;;
84672;SDS011;74899;42.256;23.284;2024-02-26T02:37:34;11.68;;;3.60;;
84672;SDS011;74899;42.256;23.284;2024-02-26T02:40:00;3.50;;;3.20;;
84672;SDS011;74899;42.256;23.284;2024-02-26T02:42:26;4.22;;;3.38;;
84672;SDS011;74899;42.256;23.284;2024-02-26T02:44:52;3.40;;;3.10;;
84672;SDS011;74899;42.256;23.284;2024-02-26T02:47:18;3.25;;;2.97;;
84672;SDS011;74899;42.256;23.284;2024-02-26T02:49:44;3.05;;;2.75;;
84672;SDS011;74899;42.256;23.284;2024-02-26T02:52:10;5.07;;;3.20;;
84672;SDS011;74899;42.256;23.284;2024-02-26T02:54:35;4.72;;;3.72;;
84672;SDS011;74899;42.256;23.284;2024-02-26T02:57:03;7.03;;;3.33;;
84672;SDS011;74899;42.256;23.284;2024-02-26T02:59:30;4.82;;;2.67;;
84672;SDS011;74899;42.256;23.284;2024-02-26T03:01:56;5.47;;;3.30;;
84672;SDS011;74899;42.256;23.284;2024-02-26T03:04:22;3.22;;;2.90;;
84672;SDS011;74899;42.256;23.284;2024-02-26T03:06:48;3.25;;;3.05;;
84672;SDS011;74899;42.256;23.284;2024-02-26T03:09:13;4.38;;;3.97;;
84672;SDS011;74899;42.256;23.284;2024-02-26T03:11:40;5.03;;;3.58;;
84672;SDS011;74899;42.256;23.284;2024-02-26T03:14:06;7.95;;;4.55;;
84672;SDS011;74899;42.256;23.284;2024-02-26T03:16:32;6.15;;;3.97;;
84672;SDS011;74899;42.256;23.284;2024-02-26T03:18:58;5.97;;;4.90;;
84672;SDS011;74899;42.256;23.284;2024-02-26T03:21:25;4.13;;;3.30;;
84672;SDS011;74899;42.256;23.284;2024-02-26T03:23:51;3.50;;;3.20;;
84672;SDS011;74899;42.256;23.284;2024-02-26T03:42:14;3.15;;;2.85;;
84672;SDS011;74899;42.256;23.284;2024-02-26T03:44:40;3.35;;;3.05;;
84672;SDS011;74899;42.256;23.284;2024-02-26T03:47:06;5.97;;;3.55;;
84672;SDS011;74899;42.256;23.284;2024-02-26T03:49:32;3.78;;;3.47;;
84672;SDS011;74899;42.256;23.284;2024-02-26T03:51:58;5.68;;;4.43;;
84672;SDS011;74899;42.256;23.284;2024-02-26T03:54:24;5.43;;;3.40;;
84672;SDS011;74899;42.256;23.284;2024-02-26T05:52:18;4.45;;;3.72;;
84672;SDS011;74899;42.256;23.284;2024-02-26T05:54:44;16.05;;;9.40;;
84672;SDS011;74899;42.256;23.284;2024-02-26T05:57:09;35.53;;;17.65;;
84672;SDS011;74899;42.256;23.284;2024-02-26T05:59:35;5.57;;;4.72;;
84672;SDS011;74899;42.256;23.284;2024-02-26T06:02:00;18.25;;;10.55;;
84672;SDS011;74899;42.256;23.284;2024-02-26T06:04:26;12.05;;;8.40;;
84672;SDS011;74899;42.256;23.284;2024-02-26T06:06:51;31.38;;;14.65;;
84672;SDS011;74899;42.256;23.284;2024-02-26T06:09:17;28.95;;;13.02;;
84672;SDS011;74899;42.256;23.284;2024-02-26T06:11:42;38.95;;;19.88;;
84672;SDS011;74899;42.256;23.284;2024-02-26T06:14:08;27.27;;;14.48;;
84672;SDS011;74899;42.256;23.284;2024-02-26T06:16:35;31.27;;;15.70;;
84672;SDS011;74899;42.256;23.284;2024-02-26T06:19:00;34.05;;;19.58;;
84672;SDS011;74899;42.256;23.284;2024-02-26T06:21:27;38.03;;;19.40;;
84672;SDS011;74899;42.256;23.284;2024-02-26T06:23:53;43.17;;;22.58;;
84672;SDS011;74899;42.256;23.284;2024-02-26T06:26:18;26.92;;;16.95;;
84672;SDS011;74899;42.256;23.284;2024-02-26T06:28:44;20.23;;;10.95;;
84672;SDS011;74899;42.256;23.284;2024-02-26T06:31:10;11.38;;;8.20;;
84672;SDS011;74899;42.256;23.284;2024-02-26T06:33:36;23.60;;;15.73;;
84672;SDS011;74899;42.256;23.284;2024-02-26T06:36:02;9.32;;;7.00;;
84672;SDS011;74899;42.256;23.284;2024-02-26T06:38:29;10.13;;;8.00;;
84672;SDS011;74899;42.256;23.284;2024-02-26T06:40:55;11.88;;;7.90;;
84672;SDS011;74899;42.256;23.284;2024-02-26T06:43:21;23.13;;;11.18;;
84672;SDS011;74899;42.256;23.284;2024-02-26T06:45:48;37.70;;;20.98;;
84672;SDS011;74899;42.256;23.284;2024-02-26T06:48:14;27.25;;;13.02;;
84672;SDS011;74899;42.256;23.284;2024-02-26T06:50:39;25.45;;;13.98;;
84672;SDS011;74899;42.256;23.284;2024-02-26T06:53:06;26.20;;;15.95;;
84672;SDS011;74899;42.256;23.284;2024-02-26T06:55:32;55.70;;;26.55;;
84672;SDS011;74899;42.256;23.284;2024-02-26T06:57:59;64.43;;;34.13;;
84672;SDS011;74899;42.256;23.284;2024-02-26T07:00:25;45.72;;;26.33;;
84672;SDS011;74899;42.256;23.284;2024-02-26T07:02:51;37.00;;;22.45;;
84672;SDS011;74899;42.256;23.284;2024-02-26T07:05:17;31.17;;;17.85;;
84672;SDS011;74899;42.256;23.284;2024-02-26T07:07:43;29.50;;;18.13;;
84672;SDS011;74899;42.256;23.284;2024-02-26T07:10:10;38.70;;;19.20;;
84672;SDS011;74899;42.256;23.284;2024-02-26T07:12:38;32.53;;;17.00;;
84672;SDS011;74899;42.256;23.284;2024-02-26T07:15:05;38.40;;;22.58;;
84672;SDS011;74899;42.256;23.284;2024-02-26T07:17:34;22.75;;;12.32;;
84672;SDS011;74899;42.256;23.284;2024-02-26T07:20:00;23.92;;;12.43;;
84672;SDS011;74899;42.256;23.284;2024-02-26T07:22:25;75.40;;;35.15;;
84672;SDS011;74899;42.256;23.284;2024-02-26T07:24:51;23.00;;;13.43;;
84672;SDS011;74899;42.256;23.284;2024-02-26T07:27:20;25.63;;;13.77;;
84672;SDS011;74899;42.256;23.284;2024-02-26T07:29:47;22.58;;;13.50;;
84672;SDS011;74899;42.256;23.284;2024-02-26T07:32:14;22.08;;;13.65;;
84672;SDS011;74899;42.256;23.284;2024-02-26T07:34:42;37.50;;;18.60;;
84672;SDS011;74899;42.256;23.284;2024-02-26T07:37:10;35.08;;;18.55;;
84672;SDS011;74899;42.256;23.284;2024-02-26T07:39:37;29.30;;;16.05;;
84672;SDS011;74899;42.256;23.284;2024-02-26T07:42:03;51.10;;;27.27;;
84672;SDS011;74899;42.256;23.284;2024-02-26T07:44:32;27.42;;;15.85;;
84672;SDS011;74899;42.256;23.284;2024-02-26T07:46:59;6.05;;;5.38;;
84672;SDS011;74899;42.256;23.284;2024-02-26T07:49:26;4.82;;;4.43;;
84672;SDS011;74899;42.256;23.284;2024-02-26T07:51:52;11.98;;;7.90;;
84672;SDS011;74899;42.256;23.284;2024-02-26T07:54:18;40.28;;;24.70;;
84672;SDS011;74899;42.256;23.284;2024-02-26T07:56:44;23.27;;;13.77;;
84672;SDS011;74899;42.256;23.284;2024-02-26T07:59:10;17.30;;;9.80;;
84672;SDS011;74899;42.256;23.284;2024-02-26T08:01:36;13.98;;;9.80;;
84672;SDS011;74899;42.256;23.284;2024-02-26T08:04:04;16.13;;;8.85;;
84672;SDS011;74899;42.256;23.284;2024-02-26T08:06:32;15.00;;;10.45;;
84672;SDS011;74899;42.256;23.284;2024-02-26T08:08:59;16.38;;;11.27;;
84672;SDS011;74899;42.256;23.284;2024-02-26T08:11:25;18.17;;;11.20;;
84672;SDS011;74899;42.256;23.284;2024-02-26T08:13:52;11.55;;;7.97;;
84672;SDS011;74899;42.256;23.284;2024-02-26T08:16:18;22.52;;;12.07;;
84672;SDS011;74899;42.256;23.284;2024-02-26T08:18:45;17.08;;;11.50;;
84672;SDS011;74899;42.256;23.284;2024-02-26T08:21:12;14.13;;;9.27;;
84672;SDS011;74899;42.256;23.284;2024-02-26T08:23:38;38.17;;;21.13;;
84672;SDS011;74899;42.256;23.284;2024-02-26T08:26:04;16.85;;;11.48;;
84672;SDS011;74899;42.256;23.284;2024-02-26T08:28:33;11.27;;;7.38;;
84672;SDS011;74899;42.256;23.284;2024-02-26T08:30:59;9.38;;;7.15;;
84672;SDS011;74899;42.256;23.284;2024-02-26T08:33:25;15.93;;;8.38;;
84672;SDS011;74899;42.256;23.284;2024-02-26T08:35:51;9.18;;;7.57;;
84672;SDS011;74899;42.256;23.284;2024-02-26T08:38:17;16.70;;;10.32;;
84672;SDS011;74899;42.256;23.284;2024-02-26T08:40:44;13.65;;;10.32;;
84672;SDS011;74899;42.256;23.284;2024-02-26T08:43:09;15.57;;;11.55;;
84672;SDS011;74899;42.256;23.284;2024-02-26T08:45:35;19.27;;;12.05;;
84672;SDS011;74899;42.256;23.284;2024-02-26T08:48:01;18.95;;;10.73;;
84672;SDS011;74899;42.256;23.284;2024-02-26T08:50:27;17.65;;;11.93;;
84672;SDS011;74899;42.256;23.284;2024-02-26T08:52:53;13.70;;;8.93;;
84672;SDS011;74899;42.256;23.284;2024-02-26T08:55:19;21.30;;;11.80;;
84672;SDS011;74899;42.256;23.284;2024-02-26T08:57:44;15.48;;;10.13;;
84672;SDS011;74899;42.256;23.284;2024-02-26T09:00:10;20.45;;;11.18;;
84672;SDS011;74899;42.256;23.284;2024-02-26T09:02:38;11.80;;;7.05;;
84672;SDS011;74899;42.256;23.284;2024-02-26T09:05:05;6.97;;;6.30;;
84672;SDS011;74899;42.256;23.284;2024-02-26T09:07:31;10.85;;;7.68;;
84672;SDS011;74899;42.256;23.284;2024-02-26T09:09:57;8.90;;;6.32;;
84672;SDS011;74899;42.256;23.284;2024-02-26T09:12:23;10.55;;;7.30;;
84672;SDS011;74899;42.256;23.284;2024-02-26T09:14:49;6.63;;;5.35;;
84672;SDS011;74899;42.256;23.284;2024-02-26T09:17:14;11.05;;;9.75;;
84672;SDS011;74899;42.256;23.284;2024-02-26T09:19:40;6.90;;;5.32;;
84672;SDS011;74899;42.256;23.284;2024-02-26T09:22:08;15.45;;;6.35;;
84672;SDS011;74899;42.256;23.284;2024-02-26T09:24:34;7.50;;;5.85;;
84672;SDS011;74899;42.256;23.284;2024-02-26T09:27:01;12.52;;;5.03;;
84672;SDS011;74899;42.256;23.284;2024-02-26T09:29:27;5.10;;;4.70;;
84672;SDS011;74899;42.256;23.284;2024-02-26T09:31:53;8.63;;;4.47;;
84672;SDS011;74899;42.256;23.284;2024-02-26T09:34:18;7.03;;;4.88;;
84672;SDS011;74899;42.256;23.284;2024-02-26T09:36:44;6.53;;;5.25;;
84672;SDS011;74899;42.256;23.284;2024-02-26T09:39:11;5.13;;;4.72;;
84672;SDS011;74899;42.256;23.284;2024-02-26T09:41:40;6.20;;;5.63;;
84672;SDS011;74899;42.256;23.284;2024-02-26T09:44:12;8.18;;;5.88;;
84672;SDS011;74899;42.256;23.284;2024-02-26T09:46:44;4.68;;;4.22;;
84672;SDS011;74899;42.256;23.284;2024-02-26T09:49:10;9.85;;;5.65;;
84672;SDS011;74899;42.256;23.284;2024-02-26T09:51:38;8.27;;;6.25;;
84672;SDS011;74899;42.256;23.284;2024-02-26T09:54:05;7.93;;;6.50;;
84672;SDS011;74899;42.256;23.284;2024-02-26T09:56:37;5.78;;;5.28;;
84672;SDS011;74899;42.256;23.284;2024-02-26T09:59:10;6.00;;;5.25;;
84672;SDS011;74899;42.256;23.284;2024-02-26T10:01:45;5.18;;;4.70;;
84672;SDS011;74899;42.256;23.284;2024-02-26T10:04:13;4.28;;;3.97;;
84672;SDS011;74899;42.256;23.284;2024-02-26T10:06:40;5.60;;;4.93;;
84672;SDS011;74899;42.256;23.284;2024-02-26T10:09:09;6.53;;;4.75;;
84672;SDS011;74899;42.256;23.284;2024-02-26T10:11:35;6.20;;;4.95;;
84672;SDS011;74899;42.256;23.284;2024-02-26T10:14:04;6.43;;;5.93;;
84672;SDS011;74899;42.256;23.284;2024-02-26T10:16:30;5.65;;;5.15;;
84672;SDS011;74899;42.256;23.284;2024-02-26T10:18:58;7.05;;;5.30;;
84672;SDS011;74899;42.256;23.284;2024-02-26T10:21:25;5.05;;;4.75;;
84672;SDS011;74899;42.256;23.284;2024-02-26T10:23:51;6.43;;;5.82;;
84672;SDS011;74899;42.256;23.284;2024-02-26T10:26:17;6.05;;;5.55;;
84672;SDS011;74899;42.256;23.284;2024-02-26T10:28:50;7.05;;;5.93;;
84672;SDS011;74899;42.256;23.284;2024-02-26T10:31:16;7.68;;;5.45;;
84672;SDS011;74899;42.256;23.284;2024-02-26T10:33:42;6.50;;;5.90;;
84672;SDS011;74899;42.256;23.284;2024-02-26T10:36:08;10.10;;;5.85;;
84672;SDS011;74899;42.256;23.284;2024-02-26T10:38:34;6.03;;;5.43;;
84672;SDS011;74899;42.256;23.284;2024-02-26T10:41:02;6.68;;;5.95;;
84672;SDS011;74899;42.256;23.284;2024-02-26T10:43:29;12.18;;;7.30;;
84672;SDS011;74899;42.256;23.284;2024-02-26T10:45:57;5.85;;;5.28;;
84672;SDS011;74899;42.256;23.284;2024-02-26T10:48:23;7.75;;;5.45;;
84672;SDS011;74899;42.256;23.284;2024-02-26T10:50:49;6.25;;;5.72;;
84672;SDS011;74899;42.256;23.284;2024-02-26T10:53:17;7.22;;;6.00;;
84672;SDS011;74899;42.256;23.284;2024-02-26T10:55:51;6.95;;;5.85;;
84672;SDS011;74899;42.256;23.284;2024-02-26T10:58:20;9.85;;;6.85;;
84672;SDS011;74899;42.256;23.284;2024-02-26T11:00:47;6.75;;;5.78;;
84672;SDS011;74899;42.256;23.284;2024-02-26T11:03:15;5.00;;;4.60;;
84672;SDS011;74899;42.256;23.284;2024-02-26T11:05:51;7.35;;;5.32;;
84672;SDS011;74899;42.256;23.284;2024-02-26T11:08:19;5.70;;;5.20;;
84672;SDS011;74899;42.256;23.284;2024-02-26T11:10:50;11.98;;;7.50;;
84672;SDS011;74899;42.256;23.284;2024-02-26T11:13:19;9.05;;;6.35;;
84672;SDS011;74899;42.256;23.284;2024-02-26T11:15:52;6.03;;;5.47;;
84672;SDS011;74899;42.256;23.284;2024-02-26T11:18:20;18.70;;;10.68;;
84672;SDS011;74899;42.256;23.284;2024-02-26T11:20:48;5.72;;;4.88;;
84672;SDS011;74899;42.256;23.284;2024-02-26T11:23:16;6.07;;;5.47;;
84672;SDS011;74899;42.256;23.284;2024-02-26T11:25:43;5.93;;;5.43;;
84672;SDS011;74899;42.256;23.284;2024-02-26T11:28:10;5.85;;;5.25;;
84672;SDS011;74899;42.256;23.284;2024-02-26T11:30:42;6.03;;;5.57;;
84672;SDS011;74899;42.256;23.284;2024-02-26T11:33:17;7.07;;;5.97;;
84672;SDS011;74899;42.256;23.284;2024-02-26T11:35:44;6.20;;;5.10;;
84672;SDS011;74899;42.256;23.284;2024-02-26T11:38:17;4.43;;;4.10;;
84672;SDS011;74899;42.256;23.284;2024-02-26T11:40:46;7.28;;;5.55;;
84672;SDS011;74899;42.256;23.284;2024-02-26T11:43:14;7.20;;;4.57;;
84672;SDS011;74899;42.256;23.284;2024-02-26T11:48:21;14.18;;;5.68;;
84672;SDS011;74899;42.256;23.284;2024-02-26T11:50:49;5.00;;;4.60;;
84672;SDS011;74899;42.256;23.284;2024-02-26T11:53:30;6.25;;;5.68;;
84672;SDS011;74899;42.256;23.284;2024-02-26T11:59:10;5.70;;;4.80;;
84672;SDS011;74899;42.256;23.284;2024-02-26T12:01:36;8.80;;;4.78;;
84672;SDS011;74899;42.256;23.284;2024-02-26T12:04:06;5.72;;;4.45;;
84672;SDS011;74899;42.256;23.284;2024-02-26T12:07:00;11.70;;;7.43;;
84672;SDS011;74899;42.256;23.284;2024-02-26T12:09:32;26.88;;;11.88;;
84672;SDS011;74899;42.256;23.284;2024-02-26T12:14:26;5.40;;;4.93;;
84672;SDS011;74899;42.256;23.284;2024-02-26T12:16:52;6.32;;;4.32;;
84672;SDS011;74899;42.256;23.284;2024-02-26T12:19:18;4.45;;;4.05;;
84672;SDS011;74899;42.256;23.284;2024-02-26T12:21:46;8.98;;;5.97;;
84672;SDS011;74899;42.256;23.284;2024-02-26T12:24:19;4.93;;;4.35;;
84672;SDS011;74899;42.256;23.284;2024-02-26T12:26:46;5.95;;;5.35;;
84672;SDS011;74899;42.256;23.284;2024-02-26T12:29:12;4.03;;;3.70;;
84672;SDS011;74899;42.256;23.284;2024-02-26T12:31:39;5.03;;;4.55;;
84672;SDS011;74899;42.256;23.284;2024-02-26T12:34:06;4.88;;;4.28;;
84672;SDS011;74899;42.256;23.284;2024-02-26T12:36:36;5.30;;;3.92;;
84672;SDS011;74899;42.256;23.284;2024-02-26T12:39:03;7.18;;;4.05;;
84672;SDS011;74899;42.256;23.284;2024-02-26T12:41:33;5.05;;;3.92;;
84672;SDS011;74899;42.256;23.284;2024-02-26T12:43:59;4.53;;;4.13;;
84672;SDS011;74899;42.256;23.284;2024-02-26T12:46:25;11.98;;;6.03;;
84672;SDS011;74899;42.256;23.284;2024-02-26T12:48:56;4.15;;;3.95;;
84672;SDS011;74899;42.256;23.284;2024-02-26T12:51:23;5.05;;;4.30;;
84672;SDS011;74899;42.256;23.284;2024-02-26T12:53:52;12.18;;;4.40;;
84672;SDS011;74899;42.256;23.284;2024-02-26T12:56:22;8.15;;;4.35;;
84672;SDS011;74899;42.256;23.284;2024-02-26T12:58:51;11.13;;;6.68;;
84672;SDS011;74899;42.256;23.284;2024-02-26T13:01:19;8.80;;;5.60;;
84672;SDS011;74899;42.256;23.284;2024-02-26T13:03:48;4.95;;;4.20;;
84672;SDS011;74899;42.256;23.284;2024-02-26T13:06:15;6.13;;;4.32;;
84672;SDS011;74899;42.256;23.284;2024-02-26T13:08:43;4.45;;;4.07;;
84672;SDS011;74899;42.256;23.284;2024-02-26T13:11:10;3.55;;;3.22;;
84672;SDS011;74899;42.256;23.284;2024-02-26T13:13:37;4.30;;;3.85;;
84672;SDS011;74899;42.256;23.284;2024-02-26T13:16:04;8.43;;;4.25;;
84672;SDS011;74899;42.256;23.284;2024-02-26T13:18:35;4.60;;;3.95;;
84672;SDS011;74899;42.256;23.284;2024-02-26T13:21:09;4.72;;;4.30;;
84672;SDS011;74899;42.256;23.284;2024-02-26T13:23:41;4.80;;;3.83;;
84672;SDS011;74899;42.256;23.284;2024-02-26T13:26:08;8.02;;;5.32;;
84672;SDS011;74899;42.256;23.284;2024-02-26T13:28:39;6.00;;;4.85;;
84672;SDS011;74899;42.256;23.284;2024-02-26T13:31:06;3.25;;;2.97;;
84672;SDS011;74899;42.256;23.284;2024-02-26T13:33:34;4.40;;;4.10;;
84672;SDS011;74899;42.256;23.284;2024-02-26T13:36:00;6.25;;;5.35;;
84672;SDS011;74899;42.256;23.284;2024-02-26T13:38:26;7.70;;;5.50;;
84672;SDS011;74899;42.256;23.284;2024-02-26T13:40:53;7.90;;;3.63;;
84672;SDS011;74899;42.256;23.284;2024-02-26T13:43:20;5.88;;;3.42;;
84672;SDS011;74899;42.256;23.284;2024-02-26T13:45:47;8.93;;;4.40;;
84672;SDS011;74899;42.256;23.284;2024-02-26T13:48:13;4.75;;;4.18;;
84672;SDS011;74899;42.256;23.284;2024-02-26T13:50:39;4.72;;;4.43;;
84672;SDS011;74899;42.256;23.284;2024-02-26T13:53:06;7.18;;;5.65;;
84672;SDS011;74899;42.256;23.284;2024-02-26T13:55:33;9.07;;;6.00;;
84672;SDS011;74899;42.256;23.284;2024-02-26T13:57:59;8.77;;;5.80;;
84672;SDS011;74899;42.256;23.284;2024-02-26T14:00:30;13.98;;;6.90;;
84672;SDS011;74899;42.256;23.284;2024-02-26T14:03:00;12.10;;;7.95;;
84672;SDS011;74899;42.256;23.284;2024-02-26T14:05:30;12.02;;;7.43;;
84672;SDS011;74899;42.256;23.284;2024-02-26T14:07:56;6.68;;;6.10;;
84672;SDS011;74899;42.256;23.284;2024-02-26T14:10:22;13.70;;;7.47;;
84672;SDS011;74899;42.256;23.284;2024-02-26T14:12:48;6.93;;;4.80;;
84672;SDS011;74899;42.256;23.284;2024-02-26T14:15:15;5.57;;;3.70;;
84672;SDS011;74899;42.256;23.284;2024-02-26T14:17:41;7.25;;;6.50;;
84672;SDS011;74899;42.256;23.284;2024-02-26T14:20:08;13.95;;;9.85;;
84672;SDS011;74899;42.256;23.284;2024-02-26T14:22:34;60.92;;;37.40;;
84672;SDS011;74899;42.256;23.284;2024-02-26T14:25:00;20.48;;;13.50;;
84672;SDS011;74899;42.256;23.284;2024-02-26T14:27:27;15.40;;;10.85;;
84672;SDS011;74899;42.256;23.284;2024-02-26T14:29:53;22.42;;;11.73;;
84672;SDS011;74899;42.256;23.284;2024-02-26T14:32:20;38.33;;;22.83;;
84672;SDS011;74899;42.256;23.284;2024-02-26T14:34:47;31.80;;;17.42;;
84672;SDS011;74899;42.256;23.284;2024-02-26T14:37:13;30.05;;;17.27;;
84672;SDS011;74899;42.256;23.284;2024-02-26T14:39:39;14.70;;;9.00;;
84672;SDS011;74899;42.256;23.284;2024-02-26T14:42:11;26.17;;;15.65;;
84672;SDS011;74899;42.256;23.284;2024-02-26T14:44:37;18.60;;;11.18;;
84672;SDS011;74899;42.256;23.284;2024-02-26T14:47:03;21.88;;;11.45;;
84672;SDS011;74899;42.256;23.284;2024-02-26T14:52:00;15.65;;;8.98;;
84672;SDS011;74899;42.256;23.284;2024-02-26T14:54:26;14.65;;;8.52;;
84672;SDS011;74899;42.256;23.284;2024-02-26T14:56:52;11.50;;;7.78;;
84672;SDS011;74899;42.256;23.284;2024-02-26T14:59:18;8.32;;;5.95;;
84672;SDS011;74899;42.256;23.284;2024-02-26T15:01:43;8.30;;;3.90;;
84672;SDS011;74899;42.256;23.284;2024-02-26T15:04:09;4.55;;;3.92;;
84672;SDS011;74899;42.256;23.284;2024-02-26T15:06:37;6.32;;;4.57;;
84672;SDS011;74899;42.256;23.284;2024-02-26T15:09:03;8.15;;;6.05;;
84672;SDS011;74899;42.256;23.284;2024-02-26T15:11:29;13.95;;;8.38;;
84672;SDS011;74899;42.256;23.284;2024-02-26T15:13:55;16.00;;;7.63;;
84672;SDS011;74899;42.256;23.284;2024-02-26T15:16:22;9.13;;;6.45;;
84672;SDS011;74899;42.256;23.284;2024-02-26T15:18:48;53.55;;;30.40;;
84672;SDS011;74899;42.256;23.284;2024-02-26T15:21:14;60.83;;;32.08;;
84672;SDS011;74899;42.256;23.284;2024-02-26T15:23:42;23.30;;;14.27;;
84672;SDS011;74899;42.256;23.284;2024-02-26T15:26:09;15.50;;;11.05;;
84672;SDS011;74899;42.256;23.284;2024-02-26T15:28:35;17.00;;;10.73;;
84672;SDS011;74899;42.256;23.284;2024-02-26T15:31:01;13.13;;;7.80;;
84672;SDS011;74899;42.256;23.284;2024-02-26T15:33:27;9.02;;;6.50;;
84672;SDS011;74899;42.256;23.284;2024-02-26T15:35:53;9.32;;;6.72;;
84672;SDS011;74899;42.256;23.284;2024-02-26T15:38:19;8.35;;;5.70;;
84672;SDS011;74899;42.256;23.284;2024-02-26T15:40:45;17.60;;;9.55;;
84672;SDS011;74899;42.256;23.284;2024-02-26T15:43:13;16.30;;;10.02;;
84672;SDS011;74899;42.256;23.284;2024-02-26T15:45:40;74.00;;;34.33;;
84672;SDS011;74899;42.256;23.284;2024-02-26T15:48:06;23.52;;;13.40;;
84672;SDS011;74899;42.256;23.284;2024-02-26T15:50:32;24.90;;;12.13;;
84672;SDS011;74899;42.256;23.284;2024-02-26T15:52:58;20.98;;;10.57;;
84672;SDS011;74899;42.256;23.284;2024-02-26T15:55:24;16.20;;;10.65;;
84672;SDS011;74899;42.256;23.284;2024-02-26T15:58:05;36.97;;;21.80;;
84672;SDS011;74899;42.256;23.284;2024-02-26T16:00:38;44.78;;;33.50;;
84672;SDS011;74899;42.256;23.284;2024-02-26T16:03:04;39.28;;;24.42;;
84672;SDS011;74899;42.256;23.284;2024-02-26T16:05:30;23.45;;;14.63;;
84672;SDS011;74899;42.256;23.284;2024-02-26T16:07:56;17.52;;;11.45;;
84672;SDS011;74899;42.256;23.284;2024-02-26T16:10:27;20.80;;;11.75;;
84672;SDS011;74899;42.256;23.284;2024-02-26T16:12:55;41.67;;;13.25;;
84672;SDS011;74899;42.256;23.284;2024-02-26T16:15:23;48.75;;;17.48;;
84672;SDS011;74899;42.256;23.284;2024-02-26T16:17:49;29.45;;;13.90;;
84672;SDS011;74899;42.256;23.284;2024-02-26T16:20:18;59.00;;;21.23;;
84672;SDS011;74899;42.256;23.284;2024-02-26T16:22:45;46.83;;;18.38;;
84672;SDS011;74899;42.256;23.284;2024-02-26T16:25:14;58.28;;;21.38;;
84672;SDS011;74899;42.256;23.284;2024-02-26T16:27:41;30.20;;;14.57;;
84672;SDS011;74899;42.256;23.284;2024-02-26T16:30:08;33.70;;;15.73;;
84672;SDS011;74899;42.256;23.284;2024-02-26T16:32:36;72.72;;;27.98;;
84672;SDS011;74899;42.256;23.284;2024-02-26T16:35:03;114.15;;;40.67;;
84672;SDS011;74899;42.256;23.284;2024-02-26T16:37:30;234.65;;;89.97;;
84672;SDS011;74899;42.256;23.284;2024-02-26T16:40:03;119.80;;;44.90;;
84672;SDS011;74899;42.256;23.284;2024-02-26T16:42:31;64.43;;;27.10;;
84672;SDS011;74899;42.256;23.284;2024-02-26T16:44:57;56.75;;;22.02;;
84672;SDS011;74899;42.256;23.284;2024-02-26T16:47:24;67.53;;;27.77;;
84672;SDS011;74899;42.256;23.284;2024-02-26T16:49:58;35.28;;;17.00;;
84672;SDS011;74899;42.256;23.284;2024-02-26T16:52:25;56.65;;;20.38;;
84672;SDS011;74899;42.256;23.284;2024-02-26T16:54:51;109.50;;;39.30;;
84672;SDS011;74899;42.256;23.284;2024-02-26T16:57:18;59.50;;;24.80;;
84672;SDS011;74899;42.256;23.284;2024-02-26T16:59:45;75.78;;;36.60;;